Time,TemperatureF,DewpointF,PressureIn,WindDirection,WindDirectionDegrees,WindSpeedMPH,WindSpeedGustMPH,Humidity,HourlyPrecipIn,Conditions,Clouds,dailyrainin,SoftwareType,DateUTC
2013-02-11 00:00:00,45.2,42.0,30.03,WNW,294,2.0,3.0,90,0.00,,,0.00,,2013-02-11 08:00:00,
2013-02-11 00:10:00,44.0,41.0,30.03,WNW,294,2.0,3.0,90,0.00,,,0.00,,2013-02-11 08:10:00,
2013-02-11 00:20:00,44.0,41.0,30.03,WNW,294,2.0,3.0,90,0.00,,,0.00,,2013-02-11 08:20:00,
2013-02-11 00:30:00,44.7,41.0,30.04,WNW,294,0.0,1.0,88,0.00,,,0.00,,2013-02-11 08:30:00,
2013-02-11 00:40:00,45.0,42.0,30.03,WNW,294,1.0,2.0,89,0.00,,,0.00,,2013-02-11 08:40:00,
2013-02-11 00:50:00,46.1,43.0,30.03,WNW,294,1.0,2.0,89,0.00,,,0.00,,2013-02-11 08:50:00,
2013-02-11 01:00:00,46.6,43.0,30.03,WNW,294,7.0,7.0,88,0.00,,,0.00,,2013-02-11 09:00:00,
2013-02-11 01:10:00,47.0,44.0,30.04,WNW,294,4.0,4.0,88,0.00,,,0.00,,2013-02-11 09:10:00,
2013-02-11 01:20:00,47.6,43.0,30.04,WSW,257,6.0,6.0,85,0.00,,,0.00,,2013-02-11 09:20:00,
2013-02-11 01:30:00,47.4,43.0,30.04,SSW,201,4.0,4.0,85,0.00,,,0.00,,2013-02-11 09:30:00,
2013-02-11 01:40:00,47.1,43.0,30.05,SSW,194,1.0,3.0,87,0.00,,,0.00,,2013-02-11 09:40:00,
2013-02-11 01:50:00,46.7,42.0,30.05,SSE,155,3.0,4.0,85,0.00,,,0.00,,2013-02-11 09:50:00,
2013-02-11 02:00:00,46.6,42.0,30.05,ESE,119,1.0,2.0,85,0.00,,,0.00,,2013-02-11 10:00:00,
2013-02-11 02:10:00,45.7,42.0,30.05,ESE,119,3.0,3.0,88,0.00,,,0.00,,2013-02-11 10:10:00,
2013-02-11 02:20:00,45.4,41.0,30.05,ESE,119,3.0,3.0,85,0.00,,,0.00,,2013-02-11 10:20:00,
2013-02-11 02:30:00,44.8,41.0,30.05,ESE,119,2.0,3.0,86,0.00,,,0.00,,2013-02-11 10:30:00,
2013-02-11 02:40:00,44.1,40.0,30.05,ESE,119,4.0,5.0,87,0.00,,,0.00,,2013-02-11 10:40:00,
2013-02-11 02:50:00,44.0,39.0,30.04,ESE,119,2.0,3.0,83,0.00,,,0.00,,2013-02-11 10:50:00,
2013-02-11 03:00:00,43.8,38.0,30.04,ESE,119,3.0,3.0,80,0.00,,,0.00,,2013-02-11 11:00:00,
2013-02-11 03:10:00,44.4,37.0,30.04,ESE,118,4.0,5.0,76,0.00,,,0.00,,2013-02-11 11:10:00,
2013-02-11 03:20:00,44.5,37.0,30.04,ESE,118,4.0,5.0,76,0.00,,,0.00,,2013-02-11 11:20:00,
2013-02-11 03:30:00,44.2,37.0,30.04,ESE,121,2.0,4.0,77,0.00,,,0.00,,2013-02-11 11:30:00,
2013-02-11 03:40:00,44.8,37.0,30.04,ESE,117,4.0,4.0,74,0.00,,,0.00,,2013-02-11 11:40:00,
2013-02-11 03:50:00,45.0,37.0,30.03,ESE,117,4.0,4.0,73,0.00,,,0.00,,2013-02-11 11:50:00,
2013-02-11 04:00:00,45.2,36.0,30.03,ESE,117,1.0,2.0,71,0.00,,,0.00,,2013-02-11 12:00:00,
2013-02-11 04:10:00,45.6,36.0,30.04,ESE,121,4.0,7.0,69,0.00,,,0.00,,2013-02-11 12:10:00,
2013-02-11 04:20:00,46.4,36.0,30.04,SE,124,2.0,5.0,67,0.00,,,0.00,,2013-02-11 12:20:00,
2013-02-11 04:30:00,45.9,38.0,30.04,SE,124,2.0,4.0,73,0.00,,,0.00,,2013-02-11 12:30:00,
2013-02-11 04:40:00,46.0,37.0,30.04,SE,124,2.0,3.0,70,0.00,,,0.00,,2013-02-11 12:40:00,
2013-02-11 04:50:00,46.2,37.0,30.05,SE,129,5.0,6.0,71,0.00,,,0.00,,2013-02-11 12:50:00,
2013-02-11 05:00:00,45.6,38.0,30.05,SSE,165,2.0,4.0,76,0.00,,,0.00,,2013-02-11 13:00:00,
2013-02-11 05:10:00,45.4,38.0,30.05,South,171,3.0,5.0,75,0.00,,,0.00,,2013-02-11 13:10:00,
2013-02-11 05:20:00,45.8,41.0,30.05,SSW,192,2.0,5.0,82,0.00,,,0.00,,2013-02-11 13:20:00,
2013-02-11 05:30:00,45.4,38.0,30.05,South,188,0.0,3.0,76,0.00,,,0.00,,2013-02-11 13:30:00,
2013-02-11 05:40:00,45.3,37.0,30.06,South,187,1.0,1.0,72,0.00,,,0.00,,2013-02-11 13:40:00,
2013-02-11 05:50:00,44.9,37.0,30.06,South,187,2.0,3.0,75,0.00,,,0.00,,2013-02-11 13:50:00,
2013-02-11 06:00:00,44.1,37.0,30.06,South,187,1.0,2.0,75,0.00,,,0.00,,2013-02-11 14:00:00,
2013-02-11 06:10:00,43.6,36.0,30.07,South,187,0.0,0.0,74,0.00,,,0.00,,2013-02-11 14:10:00,
2013-02-11 06:20:00,43.6,36.0,30.07,South,187,0.0,0.0,74,0.00,,,0.00,,2013-02-11 14:20:00,
2013-02-11 06:30:00,43.6,36.0,30.07,South,187,0.0,0.0,74,0.00,,,0.00,,2013-02-11 14:30:00,
2013-02-11 06:40:00,44.4,36.0,30.07,South,187,1.0,1.0,72,0.00,,,0.00,,2013-02-11 14:40:00,
2013-02-11 06:50:00,44.8,36.0,30.08,South,187,1.0,2.0,72,0.00,,,0.00,,2013-02-11 14:50:00,
2013-02-11 07:00:00,44.6,36.0,30.08,South,187,1.0,2.0,71,0.00,,,0.00,,2013-02-11 15:00:00,
2013-02-11 07:10:00,45.1,36.0,30.08,South,187,0.0,0.0,70,0.00,,,0.00,,2013-02-11 15:10:00,
2013-02-11 07:20:00,45.2,36.0,30.08,South,187,0.0,0.0,69,0.00,,,0.00,,2013-02-11 15:20:00,
2013-02-11 07:30:00,45.8,35.0,30.09,South,187,0.0,0.0,67,0.00,,,0.00,,2013-02-11 15:30:00,
2013-02-11 07:40:00,46.2,36.0,30.09,South,187,0.0,0.0,68,0.00,,,0.00,,2013-02-11 15:40:00,
2013-02-11 07:50:00,46.4,36.0,30.09,South,188,0.0,0.0,68,0.00,,,0.00,,2013-02-11 15:50:00,
2013-02-11 08:00:00,47.8,38.0,30.10,South,188,0.0,0.0,70,0.00,,,0.00,,2013-02-11 16:00:00,
2013-02-11 08:10:00,48.4,37.0,30.10,West,262,0.0,0.0,65,0.00,,,0.00,,2013-02-11 16:10:00,
2013-02-11 08:20:00,49.2,37.0,30.11,West,262,0.0,0.0,63,0.00,,,0.00,,2013-02-11 16:20:00,
2013-02-11 08:30:00,49.2,38.0,30.11,SSE,153,0.0,0.0,65,0.00,,,0.00,,2013-02-11 16:30:00,
2013-02-11 08:40:00,50.8,40.0,30.11,SE,131,0.0,0.0,66,0.00,,,0.00,,2013-02-11 16:40:00,
2013-02-11 08:50:00,51.6,39.0,30.12,SE,131,0.0,0.0,62,0.00,,,0.00,,2013-02-11 16:50:00,
2013-02-11 09:00:00,52.6,41.0,30.12,SE,131,0.0,2.0,65,0.00,,,0.00,,2013-02-11 17:00:00,
2013-02-11 09:10:00,51.4,39.0,30.12,SE,131,3.0,3.0,63,0.00,,,0.00,,2013-02-11 17:10:00,
2013-02-11 09:20:00,51.3,40.0,30.12,SE,131,0.0,0.0,64,0.00,,,0.00,,2013-02-11 17:20:00,
2013-02-11 09:30:00,51.1,42.0,30.12,SSE,148,0.0,2.0,70,0.00,,,0.00,,2013-02-11 17:30:00,
2013-02-11 09:40:00,50.9,41.0,30.12,SSE,156,0.0,3.0,70,0.00,,,0.00,,2013-02-11 17:40:00,
2013-02-11 09:50:00,51.4,42.0,30.12,SSE,157,2.0,6.0,69,0.00,,,0.00,,2013-02-11 17:50:00,
2013-02-11 10:00:00,51.2,42.0,30.13,SSE,164,4.0,6.0,70,0.00,,,0.00,,2013-02-11 18:00:00,
2013-02-11 10:10:00,50.7,42.0,30.14,SSW,198,7.0,8.0,72,0.00,,,0.00,,2013-02-11 18:10:00,
2013-02-11 10:20:00,50.7,42.0,30.13,South,172,0.0,6.0,71,0.00,,,0.00,,2013-02-11 18:20:00,
2013-02-11 10:30:00,52.1,43.0,30.13,SSE,162,2.0,4.0,70,0.00,,,0.00,,2013-02-11 18:30:00,
2013-02-11 10:40:00,52.8,41.0,30.14,ESE,111,4.0,8.0,63,0.00,,,0.00,,2013-02-11 18:40:00,
2013-02-11 10:50:00,53.2,41.0,30.13,SE,126,7.0,7.0,64,0.00,,,0.00,,2013-02-11 18:50:00,
2013-02-11 11:00:00,52.8,43.0,30.14,South,184,3.0,3.0,70,0.00,,,0.00,,2013-02-11 19:00:00,
2013-02-11 11:10:00,52.9,42.0,30.14,SSE,153,6.0,6.0,67,0.00,,,0.00,,2013-02-11 19:10:00,
2013-02-11 11:20:00,53.8,44.0,30.13,South,188,0.0,6.0,69,0.00,,,0.00,,2013-02-11 19:20:00,
2013-02-11 11:30:00,53.0,44.0,30.13,SSE,155,5.0,7.0,71,0.00,,,0.00,,2013-02-11 19:30:00,
2013-02-11 11:40:00,54.6,45.0,30.12,South,190,2.0,7.0,69,0.00,,,0.00,,2013-02-11 19:40:00,
2013-02-11 11:50:00,52.1,44.0,30.12,SSW,200,7.0,11.0,74,0.00,,,0.00,,2013-02-11 19:50:00,
2013-02-11 12:00:00,51.1,44.0,30.12,SSW,211,8.0,12.0,76,0.00,,,0.00,,2013-02-11 20:00:00,
2013-02-11 12:10:00,50.0,45.0,30.12,WSW,238,12.0,12.0,83,0.00,,,0.00,,2013-02-11 20:10:00,
2013-02-11 12:20:00,49.4,45.0,30.12,SW,215,11.0,16.0,84,0.00,,,0.00,,2013-02-11 20:20:00,
2013-02-11 12:30:00,49.8,45.0,30.12,SW,232,13.0,13.0,85,0.00,,,0.00,,2013-02-11 20:30:00,
2013-02-11 12:40:00,49.8,45.0,30.12,SW,236,13.0,13.0,84,0.00,,,0.00,,2013-02-11 20:40:00,
2013-02-11 12:50:00,49.8,45.0,30.12,SW,233,11.0,14.0,82,0.00,,,0.00,,2013-02-11 20:50:00,
2013-02-11 13:00:00,49.9,45.0,30.12,SW,232,10.0,11.0,83,0.00,,,0.00,,2013-02-11 21:00:00,
2013-02-11 13:10:00,50.5,46.0,30.12,SW,235,10.0,12.0,85,0.00,,,0.00,,2013-02-11 21:10:00,
2013-02-11 13:20:00,50.6,45.0,30.12,WSW,252,11.0,12.0,82,0.00,,,0.00,,2013-02-11 21:20:00,
2013-02-11 13:30:00,50.5,46.0,30.12,West,261,12.0,13.0,84,0.00,,,0.00,,2013-02-11 21:30:00,
2013-02-11 13:40:00,50.7,46.0,30.12,WSW,250,12.0,13.0,85,0.00,,,0.00,,2013-02-11 21:40:00,
2013-02-11 13:50:00,50.6,47.0,30.12,West,259,14.0,14.0,86,0.00,,,0.00,,2013-02-11 21:50:00,
2013-02-11 14:00:00,50.5,46.0,30.12,WSW,254,12.0,16.0,86,0.00,,,0.00,,2013-02-11 22:00:00,
2013-02-11 14:10:00,50.9,47.0,30.12,WSW,250,10.0,13.0,86,0.00,,,0.00,,2013-02-11 22:10:00,
2013-02-11 14:20:00,50.9,47.0,30.12,West,267,11.0,13.0,85,0.00,,,0.00,,2013-02-11 22:20:00,
2013-02-11 14:30:00,51.0,47.0,30.12,West,279,10.0,11.0,87,0.00,,,0.00,,2013-02-11 22:30:00,
2013-02-11 14:40:00,51.1,46.0,30.12,West,264,8.0,11.0,84,0.00,,,0.00,,2013-02-11 22:40:00,
2013-02-11 14:50:00,50.9,47.0,30.12,West,273,10.0,12.0,88,0.00,,,0.00,,2013-02-11 22:50:00,
2013-02-11 15:00:00,51.0,47.0,30.12,West,265,10.0,13.0,87,0.00,,,0.00,,2013-02-11 23:00:00,
2013-02-11 15:10:00,51.4,48.0,30.13,WNW,286,10.0,10.0,88,0.00,,,0.00,,2013-02-11 23:10:00,
2013-02-11 15:20:00,50.9,47.0,30.12,West,278,7.0,11.0,88,0.00,,,0.00,,2013-02-11 23:20:00,
2013-02-11 15:30:00,51.2,48.0,30.12,WNW,285,12.0,13.0,88,0.00,,,0.00,,2013-02-11 23:30:00,
2013-02-11 15:40:00,51.9,48.0,30.12,West,275,14.0,14.0,87,0.00,,,0.00,,2013-02-11 23:40:00,
2013-02-11 15:50:00,50.8,47.0,30.13,West,279,9.0,12.0,87,0.00,,,0.00,,2013-02-11 23:50:00,
2013-02-11 16:00:00,51.5,47.0,30.13,WNW,284,8.0,12.0,86,0.00,,,0.00,,2013-02-12 00:00:00,
2013-02-11 16:10:00,51.0,48.0,30.13,West,279,11.0,11.0,88,0.00,,,0.00,,2013-02-12 00:10:00,
2013-02-11 16:20:00,51.1,48.0,30.13,West,281,8.0,11.0,89,0.00,,,0.00,,2013-02-12 00:20:00,
2013-02-11 16:30:00,51.2,48.0,30.13,West,277,6.0,8.0,88,0.00,,,0.00,,2013-02-12 00:30:00,
2013-02-11 16:40:00,51.6,48.0,30.13,West,271,7.0,7.0,86,0.00,,,0.00,,2013-02-12 00:40:00,
2013-02-11 16:50:00,51.4,47.0,30.13,WNW,282,6.0,10.0,85,0.00,,,0.00,,2013-02-12 00:50:00,
2013-02-11 17:00:00,50.9,47.0,30.13,West,271,8.0,9.0,87,0.00,,,0.00,,2013-02-12 01:00:00,
2013-02-11 17:10:00,50.5,47.0,30.14,WNW,292,7.0,8.0,87,0.00,,,0.00,,2013-02-12 01:10:00,
2013-02-11 17:20:00,50.2,47.0,30.14,WNW,292,2.0,3.0,88,0.00,,,0.00,,2013-02-12 01:20:00,
2013-02-11 17:30:00,49.7,46.0,30.14,WNW,292,1.0,2.0,88,0.00,,,0.00,,2013-02-12 01:30:00,
2013-02-11 17:40:00,49.1,46.0,30.14,WNW,292,3.0,5.0,89,0.00,,,0.00,,2013-02-12 01:40:00,
2013-02-11 17:50:00,48.4,46.0,30.15,WNW,289,5.0,5.0,90,0.00,,,0.00,,2013-02-12 01:50:00,
2013-02-11 18:00:00,48.1,46.0,30.15,WNW,288,6.0,8.0,91,0.00,,,0.00,,2013-02-12 02:00:00,
2013-02-11 18:10:00,47.8,46.0,30.15,WNW,287,4.0,5.0,92,0.00,,,0.00,,2013-02-12 02:10:00,
2013-02-11 18:20:00,47.8,46.0,30.15,WNW,286,6.0,6.0,93,0.00,,,0.00,,2013-02-12 02:20:00,
2013-02-11 18:30:00,47.8,46.0,30.16,WNW,286,5.0,6.0,93,0.00,,,0.00,,2013-02-12 02:30:00,
2013-02-11 18:40:00,47.8,46.0,30.16,WNW,286,4.0,4.0,92,0.00,,,0.00,,2013-02-12 02:40:00,
2013-02-11 18:50:00,47.6,46.0,30.16,WNW,286,0.0,0.0,93,0.00,,,0.00,,2013-02-12 02:50:00,
2013-02-11 19:00:00,47.5,46.0,30.17,WNW,286,0.0,0.0,93,0.00,,,0.00,,2013-02-12 03:00:00,
2013-02-11 19:10:00,47.6,46.0,30.17,WNW,286,0.0,0.0,94,0.00,,,0.00,,2013-02-12 03:10:00,
2013-02-11 19:20:00,47.3,45.0,30.17,WNW,286,0.0,1.0,93,0.00,,,0.00,,2013-02-12 03:20:00,
2013-02-11 19:30:00,47.0,45.0,30.17,WNW,286,0.0,0.0,92,0.00,,,0.00,,2013-02-12 03:30:00,
2013-02-11 19:40:00,47.6,46.0,30.17,WNW,286,3.0,3.0,93,0.00,,,0.00,,2013-02-12 03:40:00,
2013-02-11 19:50:00,47.7,46.0,30.18,WNW,286,0.0,2.0,92,0.00,,,0.00,,2013-02-12 03:50:00,
2013-02-11 20:00:00,47.9,46.0,30.18,WNW,286,0.0,0.0,92,0.00,,,0.00,,2013-02-12 04:00:00,
2013-02-11 20:10:00,47.7,46.0,30.18,WNW,286,1.0,1.0,92,0.00,,,0.00,,2013-02-12 04:10:00,
2013-02-11 20:20:00,47.4,45.0,30.18,WNW,286,0.0,0.0,93,0.00,,,0.00,,2013-02-12 04:20:00,
2013-02-11 20:30:00,47.3,45.0,30.18,WNW,286,0.0,0.0,93,0.00,,,0.00,,2013-02-12 04:30:00,
2013-02-11 20:40:00,47.3,45.0,30.18,WNW,286,0.0,0.0,93,0.00,,,0.00,,2013-02-12 04:40:00,
2013-02-11 20:50:00,46.5,45.0,30.19,WNW,286,3.0,3.0,93,0.00,,,0.00,,2013-02-12 04:50:00,
2013-02-11 21:00:00,45.7,44.0,30.19,WNW,286,4.0,5.0,94,0.00,,,0.00,,2013-02-12 05:00:00,
2013-02-11 21:10:00,46.0,44.0,30.20,WNW,286,4.0,4.0,94,0.00,,,0.00,,2013-02-12 05:10:00,
2013-02-11 21:20:00,46.3,44.0,30.20,WNW,286,2.0,2.0,93,0.00,,,0.00,,2013-02-12 05:20:00,
2013-02-11 21:30:00,47.3,45.0,30.20,WNW,286,0.0,0.0,93,0.00,,,0.00,,2013-02-12 05:30:00,
2013-02-11 21:40:00,48.0,45.0,30.20,WNW,282,5.0,6.0,88,0.00,,,0.00,,2013-02-12 05:40:00,
2013-02-11 21:50:00,48.4,45.0,30.21,WNW,282,4.0,4.0,88,0.00,,,0.00,,2013-02-12 05:50:00,
2013-02-11 22:00:00,48.9,45.0,30.21,WNW,282,1.0,4.0,86,0.00,,,0.00,,2013-02-12 06:00:00,
2013-02-11 22:10:00,47.2,43.0,30.21,WNW,282,3.0,3.0,85,0.00,,,0.00,,2013-02-12 06:10:00,
2013-02-11 22:20:00,45.6,43.0,30.21,WNW,282,2.0,2.0,91,0.00,,,0.00,,2013-02-12 06:20:00,
2013-02-11 22:30:00,46.0,44.0,30.21,WNW,282,0.0,0.0,91,0.00,,,0.00,,2013-02-12 06:30:00,
2013-02-11 22:40:00,46.6,44.0,30.21,WNW,282,0.0,0.0,91,0.00,,,0.00,,2013-02-12 06:40:00,
2013-02-11 22:50:00,46.8,44.0,30.21,WNW,282,1.0,2.0,90,0.00,,,0.00,,2013-02-12 06:50:00,
2013-02-11 23:00:00,46.8,44.0,30.21,WNW,282,0.0,0.0,89,0.00,,,0.00,,2013-02-12 07:00:00,
2013-02-11 23:10:00,47.1,44.0,30.22,WNW,282,0.0,0.0,89,0.00,,,0.00,,2013-02-12 07:10:00,
2013-02-11 23:20:00,47.2,44.0,30.22,WNW,282,0.0,0.0,89,0.00,,,0.00,,2013-02-12 07:20:00,
2013-02-11 23:30:00,47.4,45.0,30.22,WNW,282,1.0,2.0,90,0.00,,,0.00,,2013-02-12 07:30:00,
2013-02-11 23:40:00,47.8,45.0,30.22,WNW,282,1.0,1.0,91,0.00,,,0.00,,2013-02-12 07:40:00,
2013-02-11 23:50:00,48.1,46.0,30.22,WNW,282,1.0,1.0,92,0.00,,,0.00,,2013-02-12 07:50:00,